Time;durP1;ratioP1;P1;durP2;ratioP2;P2;SDS_P1;SDS_P2;PMS_P1;PMS_P2;Temp;Humidity;BMP_temperature;BMP_pressure;BME280_temperature;BME280_humidity;BME280_pressure;Samples;Min_cycle;Max_cycle;Signal;HPM_P1;HPM_P2
2022/08/22 00:01:29;;;;;;;;;4.67;4.67;;;;;;;;5116441;27;45263;-65
2022/08/22 00:04:02;;;;;;;;;9.00;5.33;;;;;;;;5119968;27;45646;-64
2022/08/22 00:06:39;;;;;;;;;6.33;4.67;;;;;;;;5120668;27;45372;-64
2022/08/22 00:09:07;;;;;;;;;7.00;5.67;;;;;;;;5119074;27;45374;-64
2022/08/22 00:11:44;;;;;;;;;7.33;5.00;;;;;;;;5117741;27;45607;-64
2022/08/22 00:14:21;;;;;;;;;6.00;6.00;;;;;;;;5113926;27;45554;-64
2022/08/22 00:16:56;;;;;;;;;5.00;5.00;;;;;;;;5111105;27;45339;-64
2022/08/22 00:19:34;;;;;;;;;6.67;6.67;;;;;;;;5117404;27;45490;-64
2022/08/22 00:22:02;;;;;;;;;7.00;6.00;;;;;;;;5118514;27;45691;-64
2022/08/22 00:24:36;;;;;;;;;3.00;3.00;;;;;;;;5118608;27;46391;-64
2022/08/22 00:27:06;;;;;;;;;7.00;5.33;;;;;;;;5114709;27;45513;-64
2022/08/22 00:29:52;;;;;;;;;6.00;6.00;;;;;;;;5119701;27;45302;-64
2022/08/22 00:32:31;;;;;;;;;7.67;5.00;;;;;;;;5119212;27;45338;-64
2022/08/22 00:35:16;;;;;;;;;4.67;4.67;;;;;;;;5118111;27;45312;-64
2022/08/22 00:38:05;;;;;;;;;5.00;5.00;;;;;;;;5111601;27;45519;-64
2022/08/22 00:40:49;;;;;;;;;4.33;4.00;;;;;;;;5103416;27;45428;-64
2022/08/22 00:43:29;;;;;;;;;5.00;4.67;;;;;;;;5113207;27;45459;-64
2022/08/22 00:45:58;;;;;;;;;6.00;6.00;;;;;;;;5112540;27;48154;-64
2022/08/22 00:48:42;;;;;;;;;7.00;5.00;;;;;;;;5113720;27;45240;-64
2022/08/22 00:51:17;;;;;;;;;5.67;5.67;;;;;;;;5114836;27;45513;-64
2022/08/22 00:53:45;;;;;;;;;5.33;4.00;;;;;;;;5113564;27;45433;-64
2022/08/22 00:56:23;;;;;;;;;9.67;6.67;;;;;;;;5108210;27;46448;-64
2022/08/22 00:58:54;;;;;;;;;8.67;5.67;;;;;;;;5116118;27;45397;-64
2022/08/22 01:01:27;;;;;;;;;11.00;9.00;;;;;;;;5111972;27;45459;-64
2022/08/22 01:04:01;;;;;;;;;9.67;9.67;;;;;;;;5116612;27;45255;-64
2022/08/22 01:06:39;;;;;;;;;10.33;8.33;;;;;;;;5114006;27;45647;-64
2022/08/22 01:09:19;;;;;;;;;8.00;8.00;;;;;;;;5116019;27;45404;-64
2022/08/22 01:11:50;;;;;;;;;8.00;6.00;;;;;;;;5112108;27;45573;-64
2022/08/22 01:14:32;;;;;;;;;6.00;6.00;;;;;;;;5116058;27;45432;-64
2022/08/22 01:16:59;;;;;;;;;5.33;5.33;;;;;;;;5119164;27;46074;-64
2022/08/22 01:19:27;;;;;;;;;4.00;3.00;;;;;;;;5119453;27;45530;-64
2022/08/22 01:22:11;;;;;;;;;2.00;2.00;;;;;;;;5115776;27;45400;-64
2022/08/22 01:28:04;;;;;;;;;6.67;4.00;;;;;;;;5115461;27;45656;-64
2022/08/22 01:30:38;;;;;;;;;3.67;3.67;;;;;;;;5112954;27;45484;-64
2022/08/22 01:33:09;;;;;;;;;3.00;3.00;;;;;;;;5113699;27;45556;-64
2022/08/22 01:35:40;;;;;;;;;4.00;4.00;;;;;;;;5116523;27;45372;-64
2022/08/22 01:38:17;;;;;;;;;3.00;3.00;;;;;;;;5112349;27;45445;-64
2022/08/22 01:40:55;;;;;;;;;4.67;4.67;;;;;;;;5119069;27;45425;-64
2022/08/22 01:43:50;;;;;;;;;6.67;5.33;;;;;;;;5112455;27;45433;-64
2022/08/22 01:46:35;;;;;;;;;5.67;4.00;;;;;;;;5122887;27;45275;-64
2022/08/22 01:49:09;;;;;;;;;3.67;3.67;;;;;;;;5116345;27;45581;-64
2022/08/22 01:51:44;;;;;;;;;6.67;3.33;;;;;;;;5121268;27;45406;-64
2022/08/22 01:54:32;;;;;;;;;6.00;4.00;;;;;;;;5116648;27;45371;-64
2022/08/22 01:57:00;;;;;;;;;3.33;3.33;;;;;;;;5107507;27;45458;-64
2022/08/22 01:59:31;;;;;;;;;6.00;5.00;;;;;;;;5119210;27;45547;-64
2022/08/22 02:01:59;;;;;;;;;6.00;3.00;;;;;;;;5109751;27;45576;-64
2022/08/22 02:04:27;;;;;;;;;4.67;4.00;;;;;;;;5119835;27;45328;-64
2022/08/22 02:07:05;;;;;;;;;4.33;3.33;;;;;;;;5113232;27;45227;-64
2022/08/22 02:09:37;;;;;;;;;3.00;3.00;;;;;;;;5122184;27;45825;-64
2022/08/22 02:12:17;;;;;;;;;3.67;3.67;;;;;;;;5118887;27;47507;-64
2022/08/22 02:14:49;;;;;;;;;2.33;2.33;;;;;;;;5110818;27;45541;-64
2022/08/22 02:17:24;;;;;;;;;4.00;4.00;;;;;;;;5115015;27;45564;-63
2022/08/22 02:20:08;;;;;;;;;4.33;3.67;;;;;;;;5114728;27;45390;-63
2022/08/22 02:22:52;;;;;;;;;3.33;3.33;;;;;;;;5119644;27;45524;-63
2022/08/22 02:25:24;;;;;;;;;3.00;3.00;;;;;;;;5110585;27;45439;-63
2022/08/22 02:27:57;;;;;;;;;5.67;4.00;;;;;;;;5119454;27;45411;-63
2022/08/22 02:30:41;;;;;;;;;5.00;4.00;;;;;;;;5115154;27;45373;-63
2022/08/22 02:33:09;;;;;;;;;5.00;4.00;;;;;;;;5119828;27;45269;-63
2022/08/22 02:35:50;;;;;;;;;5.00;4.33;;;;;;;;5116149;27;45397;-63
2022/08/22 02:38:24;;;;;;;;;4.00;4.00;;;;;;;;5113505;27;45546;-63
2022/08/22 02:40:52;;;;;;;;;5.00;5.00;;;;;;;;5111995;27;45417;-63
2022/08/22 02:43:19;;;;;;;;;3.00;3.00;;;;;;;;5113913;27;45472;-63
2022/08/22 02:45:47;;;;;;;;;2.67;2.67;;;;;;;;5121478;27;45457;-63
2022/08/22 02:48:35;;;;;;;;;2.00;2.00;;;;;;;;5113750;27;45556;-63
2022/08/22 02:51:08;;;;;;;;;5.67;4.00;;;;;;;;5117201;27;46321;-63
2022/08/22 02:53:53;;;;;;;;;4.67;4.00;;;;;;;;5117322;27;45373;-63
2022/08/22 02:56:22;;;;;;;;;5.67;4.00;;;;;;;;5124069;27;45214;-64
2022/08/22 02:58:52;;;;;;;;;4.00;4.00;;;;;;;;5115947;27;45365;-63
2022/08/22 03:01:20;;;;;;;;;3.67;2.00;;;;;;;;5111985;27;46543;-63
2022/08/22 03:03:46;;;;;;;;;4.00;4.00;;;;;;;;5119303;27;45393;-63
2022/08/22 03:06:31;;;;;;;;;6.33;5.33;;;;;;;;5115460;27;45277;-63
2022/08/22 03:09:19;;;;;;;;;6.00;4.67;;;;;;;;5120062;27;45456;-65
2022/08/22 03:11:48;;;;;;;;;4.00;4.00;;;;;;;;5103033;27;45583;-66
2022/08/22 03:14:28;;;;;;;;;3.33;3.33;;;;;;;;5123191;27;45418;-63
2022/08/22 03:16:57;;;;;;;;;7.00;4.00;;;;;;;;5116081;27;45469;-63
2022/08/22 03:19:45;;;;;;;;;5.00;3.67;;;;;;;;5123657;27;45270;-63
2022/08/22 03:22:14;;;;;;;;;7.00;4.00;;;;;;;;5101729;27;47190;-65
2022/08/22 03:24:42;;;;;;;;;3.67;3.33;;;;;;;;5123999;27;45612;-63
2022/08/22 03:27:26;;;;;;;;;3.00;3.00;;;;;;;;5119581;27;45220;-63
2022/08/22 03:29:54;;;;;;;;;5.33;5.00;;;;;;;;5122757;27;45317;-63
2022/08/22 03:32:21;;;;;;;;;4.33;4.00;;;;;;;;5121423;27;45587;-64
2022/08/22 03:34:57;;;;;;;;;3.33;3.33;;;;;;;;5123827;27;45336;-64
2022/08/22 03:37:34;;;;;;;;;5.33;3.67;;;;;;;;5119096;27;45473;-64
2022/08/22 03:40:03;;;;;;;;;3.00;3.00;;;;;;;;5114376;27;45680;-64
2022/08/22 03:42:34;;;;;;;;;6.00;6.00;;;;;;;;5111827;27;45838;-64
2022/08/22 03:45:17;;;;;;;;;7.00;7.00;;;;;;;;5115454;27;45397;-64
2022/08/22 03:48:01;;;;;;;;;6.00;4.67;;;;;;;;5111869;27;45768;-64
2022/08/22 03:50:44;;;;;;;;;6.67;4.00;;;;;;;;5114893;27;45529;-64
2022/08/22 03:53:10;;;;;;;;;5.67;5.67;;;;;;;;5116943;27;45511;-64
2022/08/22 03:56:07;;;;;;;;;6.00;5.33;;;;;;;;5123995;27;45435;-64
2022/08/22 03:58:51;;;;;;;;;4.33;4.00;;;;;;;;5113902;27;45400;-64
2022/08/22 04:01:28;;;;;;;;;4.00;3.67;;;;;;;;5119273;27;45392;-64
2022/08/22 04:03:54;;;;;;;;;6.00;3.33;;;;;;;;5117049;27;47645;-64
2022/08/22 04:06:34;;;;;;;;;7.00;5.00;;;;;;;;5120833;27;45312;-64
2022/08/22 04:09:12;;;;;;;;;6.00;5.00;;;;;;;;5114436;27;45243;-64
2022/08/22 04:11:51;;;;;;;;;6.33;4.67;;;;;;;;5109314;27;45391;-64
2022/08/22 04:14:38;;;;;;;;;4.67;4.67;;;;;;;;5114491;27;45584;-64
2022/08/22 04:17:09;;;;;;;;;4.67;3.67;;;;;;;;5110700;27;45443;-64
2022/08/22 04:19:34;;;;;;;;;6.33;3.67;;;;;;;;5117196;27;45466;-64
2022/08/22 04:22:18;;;;;;;;;4.00;3.00;;;;;;;;5110370;27;45350;-64
2022/08/22 04:24:44;;;;;;;;;6.33;6.33;;;;;;;;5114011;27;45625;-64
2022/08/22 04:27:09;;;;;;;;;4.67;4.67;;;;;;;;5116814;27;45366;-64
2022/08/22 04:29:44;;;;;;;;;7.00;5.00;;;;;;;;5123090;27;45457;-64
2022/08/22 04:32:16;;;;;;;;;4.67;4.67;;;;;;;;5120009;27;45348;-64
2022/08/22 04:34:49;;;;;;;;;8.67;7.67;;;;;;;;5114105;27;47821;-64
2022/08/22 04:37:19;;;;;;;;;6.33;6.00;;;;;;;;5119917;27;45297;-63
2022/08/22 04:39:44;;;;;;;;;6.00;6.00;;;;;;;;5118216;27;45393;-64
2022/08/22 04:42:13;;;;;;;;;6.67;6.67;;;;;;;;5118154;27;45347;-63
2022/08/22 04:44:58;;;;;;;;;4.67;4.67;;;;;;;;5116914;27;45409;-64
2022/08/22 04:47:30;;;;;;;;;7.00;5.00;;;;;;;;5109848;27;45356;-63
2022/08/22 04:50:01;;;;;;;;;5.33;2.00;;;;;;;;5111283;27;45418;-64
2022/08/22 04:52:34;;;;;;;;;7.00;5.67;;;;;;;;5117784;27;45378;-63
2022/08/22 04:55:14;;;;;;;;;6.67;6.00;;;;;;;;5117035;27;45388;-64
2022/08/22 04:57:54;;;;;;;;;5.67;5.67;;;;;;;;5110408;27;45354;-63
2022/08/22 05:00:20;;;;;;;;;7.00;6.00;;;;;;;;5119746;27;45503;-63
2022/08/22 05:02:47;;;;;;;;;7.00;5.00;;;;;;;;5116596;27;45811;-63
2022/08/22 05:05:15;;;;;;;;;6.00;6.00;;;;;;;;5120228;27;46244;-63
2022/08/22 05:07:48;;;;;;;;;9.00;4.33;;;;;;;;5117969;27;46571;-63
2022/08/22 05:10:21;;;;;;;;;7.67;5.67;;;;;;;;5121684;27;45509;-63
2022/08/22 05:12:49;;;;;;;;;6.00;6.00;;;;;;;;5116543;27;45385;-63
2022/08/22 05:15:19;;;;;;;;;7.33;6.67;;;;;;;;5116151;27;47373;-63
2022/08/22 05:17:46;;;;;;;;;7.00;5.00;;;;;;;;5112181;27;45337;-63
2022/08/22 05:20:14;;;;;;;;;6.00;6.00;;;;;;;;5121281;27;45560;-64
2022/08/22 05:22:41;;;;;;;;;6.67;5.33;;;;;;;;5116707;27;45566;-65
2022/08/22 05:25:09;;;;;;;;;6.00;6.00;;;;;;;;5114612;27;45383;-65
2022/08/22 05:27:39;;;;;;;;;4.00;4.00;;;;;;;;5119355;27;45340;-65
2022/08/22 05:30:10;;;;;;;;;5.33;4.00;;;;;;;;5119153;27;45392;-65
2022/08/22 05:32:57;;;;;;;;;8.33;6.67;;;;;;;;5108548;27;45473;-65
2022/08/22 05:35:30;;;;;;;;;6.33;5.67;;;;;;;;5119316;27;46331;-65
2022/08/22 05:37:56;;;;;;;;;8.00;6.33;;;;;;;;5116039;27;45438;-65
2022/08/22 05:40:23;;;;;;;;;7.67;6.00;;;;;;;;5117641;27;45307;-65
2022/08/22 05:42:49;;;;;;;;;6.67;5.00;;;;;;;;5109831;27;45436;-65
2022/08/22 05:45:16;;;;;;;;;7.00;6.33;;;;;;;;5111726;27;45485;-64
2022/08/22 05:47:44;;;;;;;;;8.33;8.00;;;;;;;;5109382;27;45419;-64
2022/08/22 05:50:17;;;;;;;;;6.67;6.67;;;;;;;;5114548;27;45311;-64
2022/08/22 05:52:51;;;;;;;;;8.00;5.67;;;;;;;;5109025;27;45552;-64
2022/08/22 05:55:38;;;;;;;;;8.00;8.00;;;;;;;;5116175;27;45396;-64
2022/08/22 05:58:12;;;;;;;;;6.67;6.67;;;;;;;;5114771;27;45309;-65
2022/08/22 06:00:40;;;;;;;;;9.33;7.00;;;;;;;;5120678;27;45315;-64
2022/08/22 06:03:17;;;;;;;;;6.00;6.00;;;;;;;;5117755;27;45391;-64
2022/08/22 06:05:45;;;;;;;;;12.67;7.33;;;;;;;;5123191;27;45502;-64
2022/08/22 06:08:23;;;;;;;;;8.33;5.33;;;;;;;;5118235;27;45656;-64
2022/08/22 06:10:54;;;;;;;;;6.67;6.67;;;;;;;;5120398;27;45253;-64
2022/08/22 06:13:28;;;;;;;;;7.00;7.00;;;;;;;;5120496;27;45504;-64
2022/08/22 06:16:05;;;;;;;;;7.67;6.00;;;;;;;;5109782;27;47306;-64
2022/08/22 06:18:31;;;;;;;;;7.67;6.33;;;;;;;;5112030;27;45490;-64
2022/08/22 06:20:56;;;;;;;;;10.00;8.33;;;;;;;;5117179;27;45169;-64
2022/08/22 06:23:41;;;;;;;;;7.25;6.50;;;;;;;;5121082;27;45506;-64
2022/08/22 06:26:10;;;;;;;;;6.67;6.00;;;;;;;;5106970;27;45594;-64
2022/08/22 06:28:40;;;;;;;;;7.00;5.67;;;;;;;;5117096;27;45489;-64
2022/08/22 06:31:07;;;;;;;;;5.67;5.00;;;;;;;;5121116;27;45416;-64
2022/08/22 06:33:37;;;;;;;;;5.00;5.00;;;;;;;;5113987;27;45306;-64
2022/08/22 06:36:32;;;;;;;;;6.33;6.00;;;;;;;;5123266;27;45314;-64
2022/08/22 06:39:16;;;;;;;;;6.33;6.00;;;;;;;;5118014;27;45396;-65
2022/08/22 06:42:07;;;;;;;;;6.00;5.67;;;;;;;;5123071;27;46097;-67
2022/08/22 06:44:36;;;;;;;;;8.00;6.00;;;;;;;;5119804;27;45694;-65
2022/08/22 06:47:04;;;;;;;;;8.67;7.67;;;;;;;;5109774;27;46426;-64
2022/08/22 06:49:31;;;;;;;;;8.67;8.00;;;;;;;;5122081;27;45314;-64
2022/08/22 06:51:58;;;;;;;;;7.67;7.67;;;;;;;;5112082;27;45460;-64
2022/08/22 06:54:26;;;;;;;;;7.00;7.00;;;;;;;;5121758;27;45443;-64
2022/08/22 06:56:51;;;;;;;;;5.00;4.67;;;;;;;;5113945;27;45327;-65
2022/08/22 06:59:21;;;;;;;;;6.67;6.67;;;;;;;;5116004;27;45378;-65
2022/08/22 07:01:49;;;;;;;;;7.67;6.33;;;;;;;;5117469;27;45336;-64
2022/08/22 07:04:14;;;;;;;;;6.67;5.67;;;;;;;;5115591;27;45340;-64
2022/08/22 07:06:42;;;;;;;;;14.33;8.33;;;;;;;;5119027;27;45501;-65
2022/08/22 07:09:16;;;;;;;;;8.67;8.00;;;;;;;;5117472;27;45407;-64
2022/08/22 07:11:42;;;;;;;;;5.00;5.00;;;;;;;;5121311;27;45665;-65
2022/08/22 07:14:12;;;;;;;;;11.00;8.00;;;;;;;;5121672;27;45331;-64
2022/08/22 07:16:42;;;;;;;;;8.00;7.00;;;;;;;;5121895;27;47088;-65
2022/08/22 07:19:09;;;;;;;;;5.00;5.00;;;;;;;;5116377;27;45359;-64
2022/08/22 07:21:42;;;;;;;;;7.33;6.00;;;;;;;;5112319;27;45302;-64
2022/08/22 07:24:09;;;;;;;;;4.67;4.67;;;;;;;;5117885;27;45328;-64
2022/08/22 07:26:50;;;;;;;;;4.67;4.33;;;;;;;;5115025;27;45438;-65
2022/08/22 07:29:21;;;;;;;;;7.33;7.33;;;;;;;;5124248;27;45516;-65
2022/08/22 07:31:49;;;;;;;;;6.67;5.67;;;;;;;;5117914;27;45244;-63
2022/08/22 07:34:32;;;;;;;;;7.67;5.00;;;;;;;;5111294;27;45238;-63
2022/08/22 07:36:57;;;;;;;;;8.67;7.00;;;;;;;;5118793;27;45430;-63
2022/08/22 07:39:25;;;;;;;;;6.33;5.00;;;;;;;;5118066;27;45217;-63
2022/08/22 07:41:50;;;;;;;;;8.67;8.00;;;;;;;;5123002;27;45376;-63
2022/08/22 07:44:17;;;;;;;;;9.67;8.00;;;;;;;;5118337;27;45605;-65
2022/08/22 07:46:52;;;;;;;;;8.00;6.33;;;;;;;;5110837;27;48126;-63
2022/08/22 07:49:35;;;;;;;;;5.67;5.67;;;;;;;;5119322;27;45357;-63
2022/08/22 07:52:06;;;;;;;;;7.67;7.67;;;;;;;;5110382;27;45291;-65
2022/08/22 07:54:35;;;;;;;;;8.67;6.00;;;;;;;;5120139;27;45225;-65
2022/08/22 07:57:03;;;;;;;;;9.00;9.00;;;;;;;;5112361;27;45606;-64
2022/08/22 07:59:30;;;;;;;;;17.67;13.67;;;;;;;;5112307;27;45334;-63
2022/08/22 08:01:57;;;;;;;;;8.33;8.00;;;;;;;;5114182;27;45451;-63
2022/08/22 08:04:26;;;;;;;;;8.00;6.00;;;;;;;;5119715;27;45349;-63
2022/08/22 08:06:53;;;;;;;;;7.00;6.00;;;;;;;;5116850;27;46614;-65
2022/08/22 08:09:19;;;;;;;;;5.00;5.00;;;;;;;;5116208;27;45467;-63
2022/08/22 08:11:45;;;;;;;;;8.00;6.67;;;;;;;;5121595;27;45361;-63
2022/08/22 08:14:13;;;;;;;;;7.33;6.00;;;;;;;;5120634;27;45233;-65
2022/08/22 08:16:51;;;;;;;;;9.00;8.67;;;;;;;;5107327;27;46307;-63
2022/08/22 08:19:18;;;;;;;;;11.33;9.00;;;;;;;;5113139;27;45433;-64
2022/08/22 08:21:52;;;;;;;;;9.00;6.33;;;;;;;;5111326;27;45490;-63
2022/08/22 08:24:20;;;;;;;;;5.00;4.33;;;;;;;;5117605;27;45330;-64
2022/08/22 08:29:35;;;;;;;;;11.00;7.33;;;;;;;;5113315;27;45646;-65
2022/08/22 08:32:02;;;;;;;;;5.67;5.67;;;;;;;;5117261;27;45423;-65
2022/08/22 08:34:31;;;;;;;;;3.67;3.00;;;;;;;;5116306;27;45431;-64
2022/08/22 08:37:15;;;;;;;;;7.33;6.33;;;;;;;;5119442;27;46079;-64
2022/08/22 08:39:44;;;;;;;;;8.00;7.00;;;;;;;;5116847;27;45278;-64
2022/08/22 08:42:15;;;;;;;;;8.67;7.67;;;;;;;;5119533;27;45310;-64
2022/08/22 08:45:15;;;;;;;;;9.00;7.00;;;;;;;;5121147;27;45260;-64
2022/08/22 08:47:49;;;;;;;;;9.67;6.33;;;;;;;;5054825;28;45530;-64
2022/08/22 08:50:14;;;;;;;;;6.33;6.00;;;;;;;;5109660;27;45234;-64
2022/08/22 08:52:42;;;;;;;;;7.00;6.00;;;;;;;;5110000;27;45192;-64
2022/08/22 08:55:10;;;;;;;;;7.67;7.00;;;;;;;;5121670;27;45434;-64
2022/08/22 08:57:45;;;;;;;;;6.00;5.00;;;;;;;;5110874;27;46323;-64
2022/08/22 09:00:13;;;;;;;;;4.67;4.67;;;;;;;;5116407;27;45499;-64
2022/08/22 09:02:44;;;;;;;;;8.00;7.00;;;;;;;;5114081;27;45517;-64
2022/08/22 09:05:32;;;;;;;;;11.00;7.67;;;;;;;;5118742;27;45383;-64
2022/08/22 09:08:15;;;;;;;;;8.00;7.33;;;;;;;;5114321;27;46155;-64
2022/08/22 09:10:59;;;;;;;;;8.00;4.67;;;;;;;;5117259;27;45423;-63
2022/08/22 09:13:43;;;;;;;;;5.00;5.00;;;;;;;;5115044;27;45374;-64
2022/08/22 09:16:26;;;;;;;;;7.33;6.33;;;;;;;;5109216;27;45666;-63
2022/08/22 09:18:58;;;;;;;;;6.33;6.00;;;;;;;;5119951;27;45599;-65
2022/08/22 09:21:35;;;;;;;;;5.00;5.00;;;;;;;;5111409;27;45357;-64
2022/08/22 09:24:18;;;;;;;;;5.00;5.00;;;;;;;;5119105;27;45295;-64
2022/08/22 09:26:43;;;;;;;;;3.67;3.67;;;;;;;;5120610;27;45532;-65
2022/08/22 09:29:12;;;;;;;;;6.00;4.33;;;;;;;;5121780;27;45348;-64
2022/08/22 09:31:53;;;;;;;;;4.00;4.00;;;;;;;;5120485;27;45495;-64
2022/08/22 09:34:25;;;;;;;;;4.00;4.00;;;;;;;;5121307;27;45404;-64
2022/08/22 09:36:54;;;;;;;;;11.00;7.67;;;;;;;;5114230;27;45367;-64
2022/08/22 09:39:24;;;;;;;;;5.00;5.00;;;;;;;;5117105;27;45566;-64
2022/08/22 09:41:55;;;;;;;;;5.00;5.00;;;;;;;;5120521;27;45519;-64
2022/08/22 09:44:33;;;;;;;;;7.00;5.67;;;;;;;;5120040;27;45390;-64
2022/08/22 09:47:07;;;;;;;;;5.00;5.00;;;;;;;;5118176;27;45450;-65
2022/08/22 09:49:47;;;;;;;;;5.33;5.33;;;;;;;;5120411;27;45452;-64
2022/08/22 09:52:15;;;;;;;;;5.00;5.00;;;;;;;;5114610;27;45423;-65
2022/08/22 09:54:44;;;;;;;;;3.67;3.67;;;;;;;;5121507;27;45266;-65
2022/08/22 09:57:19;;;;;;;;;3.67;3.67;;;;;;;;5121336;27;45342;-64
2022/08/22 09:59:47;;;;;;;;;3.00;3.00;;;;;;;;5122322;27;45481;-65
2022/08/22 10:02:15;;;;;;;;;7.33;4.33;;;;;;;;5110276;27;45345;-65
2022/08/22 10:04:45;;;;;;;;;5.67;5.00;;;;;;;;5116895;27;45402;-64
2022/08/22 10:07:29;;;;;;;;;5.67;4.00;;;;;;;;5112444;27;45485;-65
2022/08/22 10:10:00;;;;;;;;;4.00;4.00;;;;;;;;5114449;27;46833;-65
2022/08/22 10:12:28;;;;;;;;;6.00;4.00;;;;;;;;5113947;27;45615;-65
2022/08/22 10:15:03;;;;;;;;;8.67;5.67;;;;;;;;5119451;27;45330;-65
2022/08/22 10:17:37;;;;;;;;;4.67;4.67;;;;;;;;5119878;27;45630;-65
2022/08/22 10:20:02;;;;;;;;;5.00;3.67;;;;;;;;5120282;27;45595;-65
2022/08/22 10:22:39;;;;;;;;;4.33;3.67;;;;;;;;5120542;27;45394;-64
2022/08/22 10:25:09;;;;;;;;;3.00;3.00;;;;;;;;5120225;27;45519;-65
2022/08/22 10:27:53;;;;;;;;;1.00;1.00;;;;;;;;5122940;27;45343;-66
2022/08/22 10:30:26;;;;;;;;;5.33;4.00;;;;;;;;5119360;27;46282;-65
2022/08/22 10:32:59;;;;;;;;;3.67;3.33;;;;;;;;5118968;27;45450;-65
2022/08/22 10:35:24;;;;;;;;;6.67;2.67;;;;;;;;5108021;27;46673;-65
2022/08/22 10:38:04;;;;;;;;;4.33;3.00;;;;;;;;5112517;27;45352;-65
2022/08/22 10:40:36;;;;;;;;;5.00;4.00;;;;;;;;5113320;27;46544;-65
2022/08/22 10:43:07;;;;;;;;;3.00;3.00;;;;;;;;5113201;27;45398;-65
2022/08/22 10:45:35;;;;;;;;;4.00;3.00;;;;;;;;5115915;27;45383;-65
2022/08/22 10:48:03;;;;;;;;;8.00;5.00;;;;;;;;5113968;27;45317;-65
2022/08/22 10:50:36;;;;;;;;;5.00;3.33;;;;;;;;5118837;27;45343;-65
2022/08/22 10:53:34;;;;;;;;;4.00;4.00;;;;;;;;5114499;27;45632;-65
2022/08/22 10:56:07;;;;;;;;;6.00;3.00;;;;;;;;5114759;27;45504;-65
2022/08/22 10:58:35;;;;;;;;;2.67;2.67;;;;;;;;5117729;27;45269;-65
2022/08/22 11:01:03;;;;;;;;;4.00;2.00;;;;;;;;5120722;27;45352;-65
2022/08/22 11:03:31;;;;;;;;;3.00;3.00;;;;;;;;5119251;27;45456;-65
2022/08/22 11:06:00;;;;;;;;;3.67;3.67;;;;;;;;5119629;27;45221;-65
2022/08/22 11:08:44;;;;;;;;;10.00;5.00;;;;;;;;5111914;27;45777;-65
2022/08/22 11:11:34;;;;;;;;;4.33;3.33;;;;;;;;5107172;27;46296;-65
2022/08/22 11:14:20;;;;;;;;;5.00;3.33;;;;;;;;5113476;27;45364;-65
2022/08/22 11:16:45;;;;;;;;;4.67;4.00;;;;;;;;5109329;27;45519;-65
2022/08/22 11:19:10;;;;;;;;;4.67;4.67;;;;;;;;5116265;27;45451;-65
2022/08/22 11:21:44;;;;;;;;;7.00;3.00;;;;;;;;5112869;27;46100;-64
2022/08/22 11:24:29;;;;;;;;;3.00;3.00;;;;;;;;5118520;27;45478;-65
2022/08/22 11:27:20;;;;;;;;;5.00;3.33;;;;;;;;5115474;27;45512;-65
2022/08/22 11:29:45;;;;;;;;;3.67;3.67;;;;;;;;5094748;27;45376;-66
2022/08/22 11:32:24;;;;;;;;;3.75;2.00;;;;;;;;5117817;27;46788;-65
2022/08/22 11:34:52;;;;;;;;;3.00;3.00;;;;;;;;5117283;27;45465;-65
2022/08/22 11:37:21;;;;;;;;;6.00;5.00;;;;;;;;5113329;27;45555;-65
2022/08/22 11:39:56;;;;;;;;;3.67;3.00;;;;;;;;5108713;27;45469;-65
2022/08/22 11:42:25;;;;;;;;;5.67;3.00;;;;;;;;5107725;27;45462;-65
2022/08/22 11:44:53;;;;;;;;;5.33;4.00;;;;;;;;5115981;27;45270;-65
2022/08/22 11:47:21;;;;;;;;;3.67;3.67;;;;;;;;5111106;27;45573;-65
2022/08/22 11:50:05;;;;;;;;;4.33;3.00;;;;;;;;5118213;27;45601;-64
2022/08/22 11:52:46;;;;;;;;;2.00;2.00;;;;;;;;5116893;27;47325;-65
2022/08/22 11:55:16;;;;;;;;;8.67;6.33;;;;;;;;5119581;27;45166;-65
2022/08/22 11:57:44;;;;;;;;;7.00;4.00;;;;;;;;5114674;27;45512;-65
2022/08/22 12:00:21;;;;;;;;;3.00;3.00;;;;;;;;5123289;27;45508;-65
2022/08/22 12:03:05;;;;;;;;;3.00;3.00;;;;;;;;5116419;27;46343;-65
2022/08/22 12:05:51;;;;;;;;;2.00;2.00;;;;;;;;5124859;27;45404;-65
2022/08/22 12:08:22;;;;;;;;;0.67;0.67;;;;;;;;5107583;27;45310;-65
2022/08/22 12:10:50;;;;;;;;;3.00;1.67;;;;;;;;5112170;27;45345;-65
2022/08/22 12:13:33;;;;;;;;;2.00;2.00;;;;;;;;5109645;27;45682;-65
2022/08/22 12:16:14;;;;;;;;;3.33;3.33;;;;;;;;5112352;27;45351;-65
2022/08/22 12:18:52;;;;;;;;;1.67;1.67;;;;;;;;5116655;27;45455;-65
2022/08/22 12:21:29;;;;;;;;;0.33;0.33;;;;;;;;5110778;27;45522;-65
2022/08/22 12:24:06;;;;;;;;;2.00;2.00;;;;;;;;5116023;27;45328;-65
2022/08/22 12:26:55;;;;;;;;;2.00;2.00;;;;;;;;5115309;27;45256;-65
2022/08/22 12:29:23;;;;;;;;;1.33;1.33;;;;;;;;5094470;27;45410;-65
2022/08/22 12:32:15;;;;;;;;;2.00;2.00;;;;;;;;5122099;27;45448;-65
2022/08/22 12:34:43;;;;;;;;;2.67;2.67;;;;;;;;5105195;27;47268;-65
2022/08/22 12:37:08;;;;;;;;;3.67;3.67;;;;;;;;5112302;27;45380;-64
2022/08/22 12:39:45;;;;;;;;;2.50;2.50;;;;;;;;5114877;27;45271;-65
2022/08/22 12:42:35;;;;;;;;;2.00;2.00;;;;;;;;5109032;27;45340;-66
2022/08/22 12:45:03;;;;;;;;;3.33;3.33;;;;;;;;5111589;27;45356;-65
2022/08/22 12:47:40;;;;;;;;;3.00;2.00;;;;;;;;5109564;27;45392;-65
2022/08/22 12:50:23;;;;;;;;;1.00;1.00;;;;;;;;5116621;27;45337;-65
2022/08/22 12:52:54;;;;;;;;;1.67;1.67;;;;;;;;5115624;27;45455;-65
2022/08/22 12:55:25;;;;;;;;;2.00;2.00;;;;;;;;5119686;27;45433;-65
2022/08/22 12:57:57;;;;;;;;;5.00;4.67;;;;;;;;5113242;27;45399;-65
2022/08/22 13:00:38;;;;;;;;;4.00;4.00;;;;;;;;5121787;27;45304;-65
2022/08/22 13:03:09;;;;;;;;;2.33;2.00;;;;;;;;5116006;27;45607;-65
2022/08/22 13:05:36;;;;;;;;;5.00;2.00;;;;;;;;5122769;27;46380;-65
2022/08/22 13:08:10;;;;;;;;;1.00;1.00;;;;;;;;5115636;27;45386;-65
2022/08/22 13:10:51;;;;;;;;;3.67;2.00;;;;;;;;5107243;27;45407;-65
2022/08/22 13:13:28;;;;;;;;;3.00;3.00;;;;;;;;5107791;27;45629;-65
2022/08/22 13:15:56;;;;;;;;;3.00;3.00;;;;;;;;5112467;27;45354;-64
2022/08/22 13:18:27;;;;;;;;;2.33;2.00;;;;;;;;5110545;27;45258;-65
2022/08/22 13:20:55;;;;;;;;;3.67;1.33;;;;;;;;5114928;27;45444;-65
2022/08/22 13:23:37;;;;;;;;;2.33;2.33;;;;;;;;5114075;27;45446;-65
2022/08/22 13:26:09;;;;;;;;;2.00;2.00;;;;;;;;5115406;27;47553;-65
2022/08/22 13:28:39;;;;;;;;;3.00;1.67;;;;;;;;5111926;27;45969;-65
2022/08/22 13:31:05;;;;;;;;;2.00;2.00;;;;;;;;5119394;27;45257;-65
2022/08/22 13:33:35;;;;;;;;;3.67;2.67;;;;;;;;5113037;27;45485;-65
2022/08/22 13:36:04;;;;;;;;;2.00;2.00;;;;;;;;5103677;27;47169;-65
2022/08/22 13:38:37;;;;;;;;;2.67;2.67;;;;;;;;5111768;27;45383;-65
2022/08/22 13:41:02;;;;;;;;;2.00;2.00;;;;;;;;5107043;27;45319;-65
2022/08/22 13:43:30;;;;;;;;;2.00;0.00;;;;;;;;5113721;27;45436;-65
2022/08/22 13:45:57;;;;;;;;;1.00;1.00;;;;;;;;5122371;27;46600;-65
2022/08/22 13:48:27;;;;;;;;;1.33;1.33;;;;;;;;5116876;27;45303;-65
2022/08/22 13:50:52;;;;;;;;;1.00;1.00;;;;;;;;5119202;27;45407;-65
2022/08/22 13:53:25;;;;;;;;;2.00;2.00;;;;;;;;5114738;27;45430;-65
2022/08/22 13:55:56;;;;;;;;;3.00;2.00;;;;;;;;5116899;27;45486;-65
2022/08/22 13:58:28;;;;;;;;;3.00;1.33;;;;;;;;5115247;27;45401;-65
2022/08/22 14:01:13;;;;;;;;;0.67;0.67;;;;;;;;5119632;27;45400;-65
2022/08/22 14:03:44;;;;;;;;;1.00;1.00;;;;;;;;5115445;27;45311;-65
2022/08/22 14:06:18;;;;;;;;;3.00;1.00;;;;;;;;5119493;27;46528;-64
2022/08/22 14:08:44;;;;;;;;;2.00;1.00;;;;;;;;5107848;27;45530;-64
2022/08/22 14:11:27;;;;;;;;;1.00;1.00;;;;;;;;5107024;27;45354;-65
2022/08/22 14:14:03;;;;;;;;;1.00;1.00;;;;;;;;5111520;27;45420;-66
2022/08/22 14:16:46;;;;;;;;;1.00;1.00;;;;;;;;5108490;27;45423;-65
2022/08/22 14:19:15;;;;;;;;;3.00;1.67;;;;;;;;5115939;27;45281;-65
2022/08/22 14:21:49;;;;;;;;;2.00;2.00;;;;;;;;5113461;27;45586;-65
2022/08/22 14:24:17;;;;;;;;;1.00;1.00;;;;;;;;5119356;27;45368;-65
2022/08/22 14:26:51;;;;;;;;;4.00;2.67;;;;;;;;5115534;27;45452;-65
2022/08/22 14:29:18;;;;;;;;;2.00;0.33;;;;;;;;5118472;27;45345;-65
2022/08/22 14:31:58;;;;;;;;;2.00;1.00;;;;;;;;5119290;27;45428;-64
2022/08/22 14:34:24;;;;;;;;;1.00;1.00;;;;;;;;5121676;27;45463;-64
2022/08/22 14:36:56;;;;;;;;;3.00;1.00;;;;;;;;5113710;27;46361;-66
2022/08/22 14:39:26;;;;;;;;;1.00;1.00;;;;;;;;5113535;27;45381;-67
2022/08/22 14:42:01;;;;;;;;;1.00;1.00;;;;;;;;5111207;27;45331;-66
2022/08/22 14:44:46;;;;;;;;;2.00;2.00;;;;;;;;5111568;27;45436;-67
2022/08/22 14:47:21;;;;;;;;;0.67;0.67;;;;;;;;5107938;27;46414;-64
2022/08/22 14:49:53;;;;;;;;;1.00;1.00;;;;;;;;5118151;27;45420;-65
2022/08/22 14:52:33;;;;;;;;;1.33;1.33;;;;;;;;5115093;27;45348;-63
2022/08/22 14:55:14;;;;;;;;;1.67;1.67;;;;;;;;5119621;27;45304;-66
2022/08/22 14:57:59;;;;;;;;;1.00;1.00;;;;;;;;5114719;27;45676;-65
2022/08/22 15:00:26;;;;;;;;;1.33;1.33;;;;;;;;5124437;27;45343;-64
2022/08/22 15:02:51;;;;;;;;;2.00;2.00;;;;;;;;5115431;27;45454;-65
2022/08/22 15:05:20;;;;;;;;;1.00;1.00;;;;;;;;5125890;27;45445;-64
2022/08/22 15:07:53;;;;;;;;;2.67;0.00;;;;;;;;5112049;27;46362;-64
2022/08/22 15:10:30;;;;;;;;;1.00;1.00;;;;;;;;5110814;27;45292;-65
2022/08/22 15:12:57;;;;;;;;;2.00;2.00;;;;;;;;5115522;27;45535;-64
2022/08/22 15:15:26;;;;;;;;;0.00;0.00;;;;;;;;5112145;27;45179;-65
2022/08/22 15:17:51;;;;;;;;;1.00;1.00;;;;;;;;5115940;27;46303;-64
2022/08/22 15:20:20;;;;;;;;;0.00;0.00;;;;;;;;5117609;27;45335;-66
2022/08/22 15:22:47;;;;;;;;;3.00;3.00;;;;;;;;5123415;27;45415;-65
2022/08/22 15:25:16;;;;;;;;;1.00;1.00;;;;;;;;5125096;27;45493;-64
2022/08/22 15:27:45;;;;;;;;;2.33;1.33;;;;;;;;5113688;27;47070;-65